Time;durP1;ratioP1;P1;durP2;ratioP2;P2;SDS_P1;SDS_P2;PMS_P1;PMS_P2;Temp;Humidity;BMP_temperature;BMP_pressure;BME280_temperature;BME280_humidity;BME280_pressure;Samples;Min_cycle;Max_cycle;Signal;HPM_P1;HPM_P2
2022/05/12 00:01:54;;;;;;;0.52;0.52;;;;;;;;;;6128225;23;20386;-79
2022/05/12 00:04:19;;;;;;;0.63;0.52;;;;;;;;;;6103040;23;20021;-77
2022/05/12 00:06:47;;;;;;;3.78;1.58;;;;;;;;;;6128312;23;20014;-79
2022/05/12 00:09:15;;;;;;;0.30;0.30;;;;;;;;;;6128329;23;20005;-77
2022/05/12 00:11:40;;;;;;;2.67;1.40;;;;;;;;;;6126599;23;20001;-77
2022/05/12 00:14:06;;;;;;;0.88;0.82;;;;;;;;;;6128119;23;20156;-77
2022/05/12 00:16:31;;;;;;;2.70;1.45;;;;;;;;;;6128597;23;20008;-77
2022/05/12 00:18:59;;;;;;;0.75;0.63;;;;;;;;;;6126725;23;20017;-76
2022/05/12 00:21:27;;;;;;;1.83;1.48;;;;;;;;;;6128234;23;20006;-77
2022/05/12 00:23:58;;;;;;;0.38;0.38;;;;;;;;;;6128432;23;19998;-77
2022/05/12 00:26:34;;;;;;;0.65;0.45;;;;;;;;;;6128198;23;20421;-78
2022/05/12 00:29:02;;;;;;;1.20;1.02;;;;;;;;;;6151769;23;20002;-76
2022/05/12 00:31:29;;;;;;;1.30;0.60;;;;;;;;;;6126919;23;20009;-75
2022/05/12 00:33:55;;;;;;;0.47;0.47;;;;;;;;;;6128309;23;20006;-77
2022/05/12 00:36:22;;;;;;;2.97;0.73;;;;;;;;;;6127650;23;20020;-78
2022/05/12 00:38:50;;;;;;;0.43;0.35;;;;;;;;;;6128343;23;20013;-78
2022/05/12 00:41:16;;;;;;;0.30;0.30;;;;;;;;;;6128301;23;20060;-78
2022/05/12 00:43:51;;;;;;;2.53;0.68;;;;;;;;;;6127908;23;20081;-77
2022/05/12 00:46:22;;;;;;;0.38;0.38;;;;;;;;;;6151742;23;20006;-78
2022/05/12 00:48:51;;;;;;;0.70;0.70;;;;;;;;;;6151181;23;20401;-76
2022/05/12 00:51:29;;;;;;;0.50;0.50;;;;;;;;;;6127100;23;20398;-78
2022/05/12 00:53:59;;;;;;;2.72;1.85;;;;;;;;;;6126313;23;20002;-77
2022/05/12 00:56:28;;;;;;;1.65;0.40;;;;;;;;;;6126403;23;20006;-77
2022/05/12 00:59:01;;;;;;;6.13;0.77;;;;;;;;;;6127493;23;20064;-76
2022/05/12 01:01:27;;;;;;;0.43;0.43;;;;;;;;;;6126948;23;20029;-77
2022/05/12 01:03:52;;;;;;;0.95;0.90;;;;;;;;;;6126891;23;20002;-75
2022/05/12 01:06:18;;;;;;;0.10;0.10;;;;;;;;;;6126581;23;20506;-77
2022/05/12 01:08:45;;;;;;;0.68;0.57;;;;;;;;;;6127778;23;20144;-77
2022/05/12 01:11:16;;;;;;;2.67;1.10;;;;;;;;;;6126569;23;20397;-76
2022/05/12 01:13:44;;;;;;;0.47;0.38;;;;;;;;;;6126405;23;20016;-75
2022/05/12 01:16:33;;;;;;;0.40;0.40;;;;;;;;;;6126616;23;20001;-78
2022/05/12 01:18:58;;;;;;;1.10;1.02;;;;;;;;;;6151174;23;20044;-79
2022/05/12 01:21:26;;;;;;;2.08;1.35;;;;;;;;;;6127516;23;20002;-76
2022/05/12 01:23:51;;;;;;;0.32;0.32;;;;;;;;;;6127469;23;20309;-78
2022/05/12 01:26:17;;;;;;;0.35;0.32;;;;;;;;;;6126504;23;20014;-79
2022/05/12 01:28:43;;;;;;;0.35;0.35;;;;;;;;;;6126145;23;20232;-79
2022/05/12 01:31:13;;;;;;;0.20;0.20;;;;;;;;;;6127579;23;20028;-78
2022/05/12 01:33:39;;;;;;;0.77;0.25;;;;;;;;;;6127200;23;20001;-78
2022/05/12 01:36:04;;;;;;;0.10;0.10;;;;;;;;;;6127529;23;20390;-77
2022/05/12 01:38:29;;;;;;;0.10;0.10;;;;;;;;;;6127242;23;20017;-78
2022/05/12 01:40:55;;;;;;;0.08;0.08;;;;;;;;;;6127616;23;20301;-77
2022/05/12 01:43:21;;;;;;;0.10;0.10;;;;;;;;;;6127089;23;20006;-78
2022/05/12 01:45:49;;;;;;;0.43;0.22;;;;;;;;;;6151149;23;20001;-76
2022/05/12 01:48:15;;;;;;;0.52;0.52;;;;;;;;;;6126700;23;20002;-78
2022/05/12 01:50:45;;;;;;;0.40;0.20;;;;;;;;;;6127353;23;20012;-76
2022/05/12 01:53:11;;;;;;;0.88;0.65;;;;;;;;;;6125836;23;20076;-78
2022/05/12 01:55:38;;;;;;;0.10;0.10;;;;;;;;;;6150508;23;20012;-78
2022/05/12 01:58:03;;;;;;;0.05;0.05;;;;;;;;;;6126884;23;20006;-79
2022/05/12 02:00:30;;;;;;;0.00;0.00;;;;;;;;;;6127253;23;20393;-76
2022/05/12 02:03:00;;;;;;;0.20;0.10;;;;;;;;;;6127328;23;20060;-75
2022/05/12 02:05:36;;;;;;;0.32;0.32;;;;;;;;;;6127074;23;20037;-80
2022/05/12 02:08:03;;;;;;;0.30;0.30;;;;;;;;;;6127566;23;20006;-78
2022/05/12 02:10:31;;;;;;;0.35;0.25;;;;;;;;;;6127378;23;20433;-78
2022/05/12 02:12:56;;;;;;;0.30;0.30;;;;;;;;;;6127432;23;20021;-77
2022/05/12 02:15:24;;;;;;;0.80;0.65;;;;;;;;;;6126106;23;20081;-77
2022/05/12 02:17:49;;;;;;;0.85;0.55;;;;;;;;;;6127568;23;20005;-78
2022/05/12 02:20:17;;;;;;;0.05;0.05;;;;;;;;;;6127548;23;20390;-78
2022/05/12 02:22:42;;;;;;;0.43;0.43;;;;;;;;;;6126206;23;20313;-77
2022/05/12 02:25:11;;;;;;;1.10;0.60;;;;;;;;;;6101777;23;20010;-78
2022/05/12 02:27:42;;;;;;;0.00;0.00;;;;;;;;;;6127512;23;20005;-77
2022/05/12 02:30:09;;;;;;;0.10;0.10;;;;;;;;;;6126946;23;20016;-78
2022/05/12 02:32:36;;;;;;;0.00;0.00;;;;;;;;;;6126299;23;20010;-78
2022/05/12 02:35:02;;;;;;;2.30;0.63;;;;;;;;;;6126155;23;20073;-78
2022/05/12 02:37:27;;;;;;;0.80;0.40;;;;;;;;;;6150866;23;20010;-77
2022/05/12 02:39:54;;;;;;;0.40;0.40;;;;;;;;;;6127432;23;20145;-78
2022/05/12 02:42:20;;;;;;;0.22;0.22;;;;;;;;;;6150658;23;20090;-78
2022/05/12 02:44:45;;;;;;;0.90;0.63;;;;;;;;;;6127385;23;20080;-79
2022/05/12 02:47:10;;;;;;;0.00;0.00;;;;;;;;;;6127239;23;20002;-77
2022/05/12 02:49:36;;;;;;;1.98;1.00;;;;;;;;;;6126292;23;20002;-78
2022/05/12 02:52:02;;;;;;;0.13;0.13;;;;;;;;;;6127604;23;20355;-78
2022/05/12 02:54:28;;;;;;;0.40;0.40;;;;;;;;;;6127567;23;20034;-79
2022/05/12 02:56:55;;;;;;;0.00;0.00;;;;;;;;;;6127436;23;20068;-79
2022/05/12 02:59:23;;;;;;;1.98;0.57;;;;;;;;;;6127556;23;20006;-79
2022/05/12 03:01:51;;;;;;;0.32;0.32;;;;;;;;;;6101968;23;20029;-79
2022/05/12 03:04:17;;;;;;;0.10;0.10;;;;;;;;;;6127355;23;20046;-78
2022/05/12 03:06:47;;;;;;;0.32;0.22;;;;;;;;;;6127352;23;20294;-78
2022/05/12 03:09:15;;;;;;;0.32;0.30;;;;;;;;;;6127391;23;20002;-79
2022/05/12 03:11:40;;;;;;;0.05;0.05;;;;;;;;;;6127422;23;20010;-78
2022/05/12 03:14:05;;;;;;;0.25;0.25;;;;;;;;;;6127473;23;20469;-78
2022/05/12 03:16:31;;;;;;;0.43;0.30;;;;;;;;;;6128833;23;20285;-78
2022/05/12 03:18:59;;;;;;;0.10;0.10;;;;;;;;;;6129520;23;20321;-79
2022/05/12 03:21:24;;;;;;;0.00;0.00;;;;;;;;;;6127928;23;20002;-78
2022/05/12 03:23:50;;;;;;;0.30;0.30;;;;;;;;;;6128267;23;19994;-78
2022/05/12 03:26:18;;;;;;;3.20;1.27;;;;;;;;;;6127963;23;20350;-78
2022/05/12 03:28:44;;;;;;;0.35;0.28;;;;;;;;;;6127839;23;20021;-78
2022/05/12 03:31:09;;;;;;;0.00;0.00;;;;;;;;;;6127436;23;20013;-78
2022/05/12 03:33:37;;;;;;;0.35;0.35;;;;;;;;;;6127613;23;19998;-78
2022/05/12 03:36:04;;;;;;;0.00;0.00;;;;;;;;;;6128897;23;20026;-78
2022/05/12 03:38:34;;;;;;;0.30;0.30;;;;;;;;;;6128065;23;20041;-78
2022/05/12 03:41:02;;;;;;;0.20;0.20;;;;;;;;;;6127870;23;20030;-79
2022/05/12 03:46:12;;;;;;;3.30;1.33;;;;;;;;;;6128718;23;20068;-79
2022/05/12 03:48:39;;;;;;;0.80;0.80;;;;;;;;;;6128703;23;20053;-80
2022/05/12 03:51:08;;;;;;;1.17;0.68;;;;;;;;;;6128887;23;20006;-79
2022/05/12 03:53:34;;;;;;;5.10;0.20;;;;;;;;;;6127714;23;20006;-79
2022/05/12 03:56:00;;;;;;;0.00;0.00;;;;;;;;;;6129341;23;20318;-78
2022/05/12 03:58:26;;;;;;;3.40;0.75;;;;;;;;;;6152617;23;20469;-78
2022/05/12 04:00:55;;;;;;;1.38;1.27;;;;;;;;;;6128480;23;20029;-78
2022/05/12 04:03:20;;;;;;;0.93;0.82;;;;;;;;;;6128679;23;20069;-79
2022/05/12 04:05:46;;;;;;;0.00;0.00;;;;;;;;;;6128760;23;20080;-78
2022/05/12 04:08:11;;;;;;;0.03;0.03;;;;;;;;;;6151894;23;20006;-77
2022/05/12 04:10:42;;;;;;;0.63;0.63;;;;;;;;;;6128493;23;20013;-77
2022/05/12 04:13:08;;;;;;;2.00;0.57;;;;;;;;;;6127987;23;20014;-78
2022/05/12 04:15:34;;;;;;;0.10;0.10;;;;;;;;;;6128037;23;20002;-76
2022/05/12 04:18:05;;;;;;;0.10;0.10;;;;;;;;;;6126429;23;20437;-78
2022/05/12 04:20:32;;;;;;;0.10;0.10;;;;;;;;;;6127982;23;20510;-78
2022/05/12 04:22:57;;;;;;;0.70;0.65;;;;;;;;;;6128567;23;20006;-78
2022/05/12 04:25:25;;;;;;;0.10;0.10;;;;;;;;;;6127346;23;20089;-78
2022/05/12 04:27:53;;;;;;;0.57;0.30;;;;;;;;;;6128094;23;20044;-78
2022/05/12 04:30:23;;;;;;;0.40;0.40;;;;;;;;;;6127391;23;20010;-77
2022/05/12 04:32:48;;;;;;;0.47;0.32;;;;;;;;;;6128449;23;20005;-78
2022/05/12 04:35:16;;;;;;;0.50;0.40;;;;;;;;;;6128191;23;20002;-77
2022/05/12 04:37:45;;;;;;;0.50;0.40;;;;;;;;;;6127222;23;20002;-77
2022/05/12 04:40:27;;;;;;;0.15;0.10;;;;;;;;;;6128438;23;20013;-80
2022/05/12 04:42:54;;;;;;;0.05;0.05;;;;;;;;;;6127335;23;20006;-79
2022/05/12 04:45:20;;;;;;;0.40;0.40;;;;;;;;;;6128267;23;20006;-79
2022/05/12 04:47:46;;;;;;;1.35;0.95;;;;;;;;;;6127285;23;20006;-79
2022/05/12 04:50:16;;;;;;;0.30;0.30;;;;;;;;;;6128085;23;20349;-79
2022/05/12 04:52:44;;;;;;;1.40;1.00;;;;;;;;;;6128240;23;20016;-78
2022/05/12 04:55:11;;;;;;;0.95;0.93;;;;;;;;;;6127034;23;20002;-78
2022/05/12 04:57:42;;;;;;;0.20;0.20;;;;;;;;;;6128180;23;20013;-77
2022/05/12 05:00:17;;;;;;;1.75;0.95;;;;;;;;;;6127811;23;20009;-78
2022/05/12 05:02:43;;;;;;;0.65;0.52;;;;;;;;;;6127647;23;20395;-78
2022/05/12 05:05:10;;;;;;;0.43;0.43;;;;;;;;;;6127900;23;20005;-77
2022/05/12 05:07:35;;;;;;;0.43;0.43;;;;;;;;;;6128012;23;20002;-78
2022/05/12 05:10:03;;;;;;;1.38;0.80;;;;;;;;;;6126923;23;20090;-79
2022/05/12 05:12:31;;;;;;;0.43;0.43;;;;;;;;;;6127895;23;20065;-79
2022/05/12 05:14:57;;;;;;;3.58;1.00;;;;;;;;;;6150619;23;20343;-80
2022/05/12 05:17:25;;;;;;;0.80;0.80;;;;;;;;;;6127774;23;20002;-80
2022/05/12 05:19:51;;;;;;;3.35;1.48;;;;;;;;;;6102303;23;20014;-79
2022/05/12 05:22:19;;;;;;;0.28;0.28;;;;;;;;;;6150741;23;20401;-79
2022/05/12 05:24:46;;;;;;;0.17;0.17;;;;;;;;;;6127004;23;20073;-78
2022/05/12 05:27:11;;;;;;;0.77;0.77;;;;;;;;;;6127896;23;20087;-76
2022/05/12 05:29:41;;;;;;;0.57;0.57;;;;;;;;;;6126510;23;20009;-78
2022/05/12 05:32:08;;;;;;;1.75;0.17;;;;;;;;;;6127509;23;20013;-78
2022/05/12 05:34:34;;;;;;;0.85;0.82;;;;;;;;;;6126661;23;20056;-78
2022/05/12 05:36:59;;;;;;;1.55;0.95;;;;;;;;;;6127601;23;20013;-77
2022/05/12 05:39:27;;;;;;;8.57;0.80;;;;;;;;;;6127516;23;20013;-77
2022/05/12 05:41:57;;;;;;;0.32;0.32;;;;;;;;;;6127730;23;20081;-77
2022/05/12 05:44:24;;;;;;;0.28;0.17;;;;;;;;;;6126502;23;20006;-77
2022/05/12 05:46:50;;;;;;;1.42;0.90;;;;;;;;;;6127685;23;20081;-77
2022/05/12 05:49:16;;;;;;;0.45;0.45;;;;;;;;;;6150850;23;20030;-75
2022/05/12 05:54:31;;;;;;;0.80;0.80;;;;;;;;;;6127621;23;20020;-77
2022/05/12 05:56:57;;;;;;;1.40;0.73;;;;;;;;;;6127712;23;19998;-76
2022/05/12 05:59:22;;;;;;;0.80;0.35;;;;;;;;;;6127319;23;20001;-76
2022/05/12 06:01:47;;;;;;;1.88;0.98;;;;;;;;;;6127341;23;20020;-78
2022/05/12 06:04:13;;;;;;;0.20;0.10;;;;;;;;;;6127305;23;20009;-72
2022/05/12 06:06:42;;;;;;;0.43;0.43;;;;;;;;;;6127303;23;20035;-72
2022/05/12 06:09:12;;;;;;;0.57;0.35;;;;;;;;;;6127792;23;20406;-72
2022/05/12 06:11:46;;;;;;;0.40;0.40;;;;;;;;;;6127588;23;20044;-72
2022/05/12 06:14:12;;;;;;;0.28;0.28;;;;;;;;;;6126927;23;20014;-73
2022/05/12 06:16:38;;;;;;;0.40;0.40;;;;;;;;;;6150790;23;20006;-72
2022/05/12 06:19:04;;;;;;;0.40;0.40;;;;;;;;;;6127461;23;20013;-72
2022/05/12 06:21:32;;;;;;;2.08;1.40;;;;;;;;;;6126066;23;20016;-71
2022/05/12 06:24:00;;;;;;;0.47;0.47;;;;;;;;;;6126335;23;20012;-73
2022/05/12 06:26:27;;;;;;;9.85;2.17;;;;;;;;;;6126542;23;20563;-73
2022/05/12 06:28:53;;;;;;;9.13;0.40;;;;;;;;;;6126684;23;20061;-73
2022/05/12 06:31:24;;;;;;;2.30;0.88;;;;;;;;;;6125669;23;20045;-73
2022/05/12 06:33:50;;;;;;;1.90;0.93;;;;;;;;;;6150115;23;20089;-73
2022/05/12 06:36:16;;;;;;;0.30;0.15;;;;;;;;;;6126254;23;20056;-71
2022/05/12 06:38:41;;;;;;;0.52;0.43;;;;;;;;;;6126088;23;20006;-70
2022/05/12 06:41:07;;;;;;;0.82;0.50;;;;;;;;;;6127155;23;20089;-70
2022/05/12 06:43:33;;;;;;;1.27;0.88;;;;;;;;;;6126692;23;20001;-72
2022/05/12 06:45:58;;;;;;;1.98;1.13;;;;;;;;;;6149449;23;20010;-72
2022/05/12 06:48:26;;;;;;;0.90;0.70;;;;;;;;;;6126345;23;20009;-72
2022/05/12 06:50:54;;;;;;;0.60;0.60;;;;;;;;;;6127755;23;20039;-73
2022/05/12 06:53:22;;;;;;;0.13;0.13;;;;;;;;;;6128835;23;20468;-73
2022/05/12 06:55:50;;;;;;;0.75;0.43;;;;;;;;;;6128282;23;20006;-74
2022/05/12 06:58:18;;;;;;;7.47;1.55;;;;;;;;;;6128415;23;20028;-73
2022/05/12 07:00:44;;;;;;;3.17;2.22;;;;;;;;;;6128908;23;20001;-73
2022/05/12 07:03:13;;;;;;;0.88;0.65;;;;;;;;;;6129135;23;20306;-71
2022/05/12 07:05:39;;;;;;;0.40;0.40;;;;;;;;;;6128093;23;20464;-74
2022/05/12 07:08:08;;;;;;;0.60;0.60;;;;;;;;;;6127773;23;20002;-73
2022/05/12 07:10:34;;;;;;;3.10;0.47;;;;;;;;;;6128755;23;19998;-72
2022/05/12 07:12:59;;;;;;;0.25;0.25;;;;;;;;;;6128469;23;20020;-73
2022/05/12 07:15:29;;;;;;;0.20;0.20;;;;;;;;;;6128464;23;20002;-73
2022/05/12 07:17:56;;;;;;;0.55;0.55;;;;;;;;;;6126799;23;20076;-74
2022/05/12 07:28:36;;;;;;;0.28;0.25;;;;;;;;;;6129082;23;20013;-75
2022/05/12 07:31:12;;;;;;;7.32;1.10;;;;;;;;;;6127386;23;20005;-73
2022/05/12 07:33:48;;;;;;;5.00;1.90;;;;;;;;;;6126736;23;20009;-72
2022/05/12 07:36:19;;;;;;;1.00;0.93;;;;;;;;;;6128617;23;20068;-72
2022/05/12 07:38:47;;;;;;;0.57;0.55;;;;;;;;;;6128877;23;20157;-72
2022/05/12 07:41:13;;;;;;;2.17;1.00;;;;;;;;;;6128868;23;20006;-72
2022/05/12 07:43:39;;;;;;;1.05;1.00;;;;;;;;;;6129088;23;20034;-72
2022/05/12 07:46:06;;;;;;;1.15;0.93;;;;;;;;;;6128541;23;20006;-72
2022/05/12 07:48:32;;;;;;;1.35;1.05;;;;;;;;;;6128736;23;20073;-72
2022/05/12 07:50:59;;;;;;;1.50;0.98;;;;;;;;;;6128702;23;20006;-72
2022/05/12 07:53:25;;;;;;;1.08;0.68;;;;;;;;;;6126917;23;19998;-73
2022/05/12 07:55:50;;;;;;;1.60;1.27;;;;;;;;;;6127392;23;20077;-72
2022/05/12 07:58:16;;;;;;;4.57;1.75;;;;;;;;;;6128777;23;20410;-72
2022/05/12 08:00:44;;;;;;;3.35;1.20;;;;;;;;;;6127490;23;20028;-72
2022/05/12 08:03:09;;;;;;;1.52;1.23;;;;;;;;;;6128600;23;20093;-73
2022/05/12 08:05:36;;;;;;;0.68;0.68;;;;;;;;;;6128827;23;20022;-73
2022/05/12 08:08:05;;;;;;;1.63;1.00;;;;;;;;;;6128553;23;20012;-72
2022/05/12 08:10:34;;;;;;;1.73;1.38;;;;;;;;;;6127723;23;20021;-72
2022/05/12 08:13:00;;;;;;;2.13;1.02;;;;;;;;;;6128481;23;20012;-71
2022/05/12 08:15:26;;;;;;;6.90;3.35;;;;;;;;;;6128515;23;20013;-71
2022/05/12 08:17:56;;;;;;;0.55;0.22;;;;;;;;;;6128513;23;20006;-72
2022/05/12 08:20:25;;;;;;;2.05;1.00;;;;;;;;;;6151790;23;20002;-71
2022/05/12 08:22:50;;;;;;;1.10;0.95;;;;;;;;;;6128116;23;20025;-71
2022/05/12 08:25:17;;;;;;;0.63;0.63;;;;;;;;;;6127211;23;19998;-72
2022/05/12 08:27:42;;;;;;;0.47;0.47;;;;;;;;;;6128332;23;20014;-72
2022/05/12 08:30:11;;;;;;;0.60;0.50;;;;;;;;;;6128332;23;20084;-72
2022/05/12 08:32:37;;;;;;;0.55;0.52;;;;;;;;;;6128293;23;20402;-72
2022/05/12 08:35:06;;;;;;;0.30;0.30;;;;;;;;;;6126266;23;20009;-72
2022/05/12 08:37:31;;;;;;;3.55;1.70;;;;;;;;;;6128369;23;20006;-71
2022/05/12 08:39:59;;;;;;;2.03;1.17;;;;;;;;;;6128199;23;20006;-72
2022/05/12 08:42:32;;;;;;;2.00;1.02;;;;;;;;;;6128276;23;20013;-73
2022/05/12 08:44:59;;;;;;;0.88;0.85;;;;;;;;;;6127201;23;20037;-72
2022/05/12 08:47:34;;;;;;;0.30;0.30;;;;;;;;;;6129625;23;20006;-71
2022/05/12 08:50:03;;;;;;;0.80;0.60;;;;;;;;;;6128711;23;20060;-72
2022/05/12 08:52:52;;;;;;;1.23;1.10;;;;;;;;;;6127164;23;20024;-72
2022/05/12 08:55:32;;;;;;;2.53;1.17;;;;;;;;;;6128011;23;20016;-72
2022/05/12 08:58:04;;;;;;;0.52;0.52;;;;;;;;;;6126915;23;20014;-71
2022/05/12 09:00:38;;;;;;;0.22;0.22;;;;;;;;;;6151193;23;20428;-71
2022/05/12 09:03:12;;;;;;;5.28;1.23;;;;;;;;;;6126685;23;20012;-72
2022/05/12 09:05:43;;;;;;;1.15;0.90;;;;;;;;;;6127407;23;20394;-71
2022/05/12 09:08:23;;;;;;;1.10;0.47;;;;;;;;;;6151607;23;20013;-72
2022/05/12 09:11:10;;;;;;;1.10;0.68;;;;;;;;;;6126451;23;20069;-72
2022/05/12 09:13:42;;;;;;;0.95;0.82;;;;;;;;;;6102008;23;20105;-72
2022/05/12 09:16:15;;;;;;;2.47;1.23;;;;;;;;;;6126271;23;20009;-72
2022/05/12 09:18:41;;;;;;;0.85;0.75;;;;;;;;;;6128280;23;20001;-72
2022/05/12 09:21:19;;;;;;;0.30;0.30;;;;;;;;;;6127712;23;20393;-72
2022/05/12 09:23:44;;;;;;;0.98;0.57;;;;;;;;;;6127128;23;20016;-72
2022/05/12 09:26:47;;;;;;;1.83;1.10;;;;;;;;;;6126745;23;20081;-73
2022/05/12 09:29:14;;;;;;;0.52;0.52;;;;;;;;;;6128003;23;20002;-73
2022/05/12 09:31:42;;;;;;;0.43;0.43;;;;;;;;;;6128036;23;20014;-72
2022/05/12 09:34:20;;;;;;;7.72;0.60;;;;;;;;;;6127148;23;20005;-73
2022/05/12 09:36:48;;;;;;;0.47;0.47;;;;;;;;;;6128065;23;20006;-73
2022/05/12 09:39:36;;;;;;;1.10;1.00;;;;;;;;;;6126867;23;20040;-73
2022/05/12 09:42:03;;;;;;;0.82;0.82;;;;;;;;;;6126865;23;20012;-73
2022/05/12 09:44:31;;;;;;;0.95;0.80;;;;;;;;;;6126505;23;20417;-73
2022/05/12 09:47:02;;;;;;;0.73;0.73;;;;;;;;;;6126629;23;20014;-73
2022/05/12 09:49:49;;;;;;;0.57;0.57;;;;;;;;;;6124645;23;20018;-73
2022/05/12 09:52:32;;;;;;;1.02;0.95;;;;;;;;;;6127302;23;20144;-75
2022/05/12 09:55:09;;;;;;;0.95;0.77;;;;;;;;;;6126745;23;20021;-74
2022/05/12 09:57:35;;;;;;;0.75;0.70;;;;;;;;;;6125975;23;20306;-73
2022/05/12 10:00:03;;;;;;;0.75;0.75;;;;;;;;;;6126505;23;20012;-76
2022/05/12 10:08:19;;;;;;;0.80;0.32;;;;;;;;;;6146627;23;20440;-73
2022/05/12 10:10:47;;;;;;;2.17;1.98;;;;;;;;;;6126934;23;20088;-74
2022/05/12 10:13:22;;;;;;;1.00;1.00;;;;;;;;;;6149933;23;20025;-75
2022/05/12 10:15:52;;;;;;;0.40;0.40;;;;;;;;;;6101301;23;20044;-76
2022/05/12 10:18:24;;;;;;;0.80;0.75;;;;;;;;;;6101888;23;20012;-76
2022/05/12 10:20:52;;;;;;;1.63;1.17;;;;;;;;;;6127195;23;20093;-73
2022/05/12 10:23:32;;;;;;;0.73;0.73;;;;;;;;;;6125069;23;20006;-76
2022/05/12 10:26:13;;;;;;;0.40;0.40;;;;;;;;;;6150306;23;20009;-75
2022/05/12 10:28:56;;;;;;;1.17;0.98;;;;;;;;;;6125733;23;20006;-77
2022/05/12 10:32:00;;;;;;;8.77;1.42;;;;;;;;;;6101386;23;20005;-76
2022/05/12 10:35:01;;;;;;;0.90;0.90;;;;;;;;;;6066542;23;20006;-77
2022/05/12 10:37:37;;;;;;;0.45;0.45;;;;;;;;;;6125184;23;20014;-75
2022/05/12 10:40:02;;;;;;;0.80;0.80;;;;;;;;;;6127601;23;20294;-76
2022/05/12 10:42:45;;;;;;;0.60;0.60;;;;;;;;;;6126937;23;20073;-77
2022/05/12 10:45:12;;;;;;;1.10;0.57;;;;;;;;;;6126364;23;20081;-77
2022/05/12 10:48:08;;;;;;;5.63;0.80;;;;;;;;;;6126647;23;20012;-75
2022/05/12 10:50:47;;;;;;;0.45;0.45;;;;;;;;;;6126329;23;20012;-75
2022/05/12 10:53:39;;;;;;;0.47;0.35;;;;;;;;;;6127472;23;20009;-73
2022/05/12 10:56:40;;;;;;;2.17;0.65;;;;;;;;;;6126962;23;20009;-75
2022/05/12 10:59:24;;;;;;;0.63;0.47;;;;;;;;;;6126270;23;20064;-75
2022/05/12 11:02:17;;;;;;;1.13;0.75;;;;;;;;;;6126184;23;20012;-75
2022/05/12 11:04:47;;;;;;;1.20;1.10;;;;;;;;;;6105276;23;20006;-78
2022/05/12 11:07:22;;;;;;;0.28;0.28;;;;;;;;;;6127328;23;20093;-77
2022/05/12 11:09:54;;;;;;;4.10;1.08;;;;;;;;;;6127377;23;20013;-76
2022/05/12 11:12:28;;;;;;;2.23;1.13;;;;;;;;;;6126004;23;20428;-76
2022/05/12 11:15:14;;;;;;;0.63;0.60;;;;;;;;;;6150677;23;20245;-74
2022/05/12 11:17:45;;;;;;;1.35;0.82;;;;;;;;;;6125653;23;20006;-74
2022/05/12 11:20:18;;;;;;;0.55;0.32;;;;;;;;;;6126116;23;20009;-74
2022/05/12 11:22:54;;;;;;;0.80;0.70;;;;;;;;;;6127210;23;20013;-73
2022/05/12 11:25:53;;;;;;;0.38;0.38;;;;;;;;;;6101125;23;20010;-73
2022/05/12 11:31:30;;;;;;;5.45;4.53;;;;;;;;;;6126284;23;20312;-75
2022/05/12 11:33:59;;;;;;;1.40;1.30;;;;;;;;;;6127253;23;20006;-76
2022/05/12 11:36:46;;;;;;;0.60;0.35;;;;;;;;;;6126685;23;20402;-75
2022/05/12 11:39:25;;;;;;;1.80;0.50;;;;;;;;;;6128587;23;20053;-74
2022/05/12 11:42:16;;;;;;;0.20;0.20;;;;;;;;;;6129222;23;20336;-75
2022/05/12 11:45:02;;;;;;;0.30;0.20;;;;;;;;;;6128687;23;20362;-75
2022/05/12 11:47:33;;;;;;;0.20;0.20;;;;;;;;;;6127407;23;20005;-76
2022/05/12 11:50:14;;;;;;;2.10;1.45;;;;;;;;;;6103184;23;20006;-78
2022/05/12 11:52:45;;;;;;;1.20;0.73;;;;;;;;;;6127830;23;20017;-78
2022/05/12 11:55:27;;;;;;;2.47;1.05;;;;;;;;;;6128177;23;20409;-78
2022/05/12 11:58:09;;;;;;;0.52;0.52;;;;;;;;;;6127311;23;20017;-78
2022/05/12 12:00:34;;;;;;;0.25;0.25;;;;;;;;;;6102751;23;20006;-78
2022/05/12 12:03:15;;;;;;;3.70;0.45;;;;;;;;;;6127148;23;20020;-78
2022/05/12 12:05:42;;;;;;;0.50;0.50;;;;;;;;;;6128331;23;20002;-77
2022/05/12 12:08:11;;;;;;;0.90;0.57;;;;;;;;;;6128743;23;20010;-78
2022/05/12 12:10:41;;;;;;;4.00;0.73;;;;;;;;;;6127493;23;20016;-76
2022/05/12 12:13:17;;;;;;;0.28;0.17;;;;;;;;;;6127488;23;20009;-76
2022/05/12 12:16:04;;;;;;;0.63;0.47;;;;;;;;;;6128241;23;20013;-75
2022/05/12 12:18:30;;;;;;;0.77;0.77;;;;;;;;;;6127646;23;20002;-75
2022/05/12 12:20:58;;;;;;;0.35;0.35;;;;;;;;;;6127988;23;20012;-75
2022/05/12 12:23:23;;;;;;;0.65;0.47;;;;;;;;;;6151908;23;20040;-74
2022/05/12 12:26:20;;;;;;;0.25;0.25;;;;;;;;;;6128035;23;19998;-76
2022/05/12 12:29:15;;;;;;;0.20;0.20;;;;;;;;;;6127599;23;20005;-75
2022/05/12 12:31:51;;;;;;;3.58;2.42;;;;;;;;;;6127688;23;20006;-75
2022/05/12 12:34:18;;;;;;;3.40;1.67;;;;;;;;;;6151016;23;20025;-76
2022/05/12 12:36:57;;;;;;;2.17;1.52;;;;;;;;;;6126297;23;20009;-75
2022/05/12 12:39:37;;;;;;;0.13;0.10;;;;;;;;;;6128209;23;20436;-74
2022/05/12 12:42:27;;;;;;;0.35;0.35;;;;;;;;;;6127780;23;20017;-74
2022/05/12 12:45:17;;;;;;;0.60;0.60;;;;;;;;;;6128128;23;19997;-73
2022/05/12 12:47:54;;;;;;;0.82;0.40;;;;;;;;;;6126564;23;20013;-73
2022/05/12 12:50:32;;;;;;;0.43;0.43;;;;;;;;;;6126654;23;20006;-73
2022/05/12 12:52:57;;;;;;;0.45;0.30;;;;;;;;;;6127989;23;20073;-71
2022/05/12 12:58:35;;;;;;;0.65;0.65;;;;;;;;;;6147771;23;20085;-73
2022/05/12 13:01:09;;;;;;;1.33;0.90;;;;;;;;;;6127702;23;20080;-75
2022/05/12 13:03:34;;;;;;;0.30;0.22;;;;;;;;;;6150808;23;20629;-77
2022/05/12 13:06:17;;;;;;;0.35;0.35;;;;;;;;;;6126130;23;20049;-77
2022/05/12 13:08:42;;;;;;;;;;;;;;;;;;6128401;23;20016;-77
2022/05/12 13:11:20;;;;;;;0.98;0.95;;;;;;;;;;6151345;23;20268;-78
2022/05/12 13:13:50;;;;;;;0.32;0.32;;;;;;;;;;6150354;23;20360;-75
2022/05/12 13:16:22;;;;;;;0.40;0.40;;;;;;;;;;6150924;23;20017;-75
2022/05/12 13:18:50;;;;;;;0.43;0.30;;;;;;;;;;6127871;23;20017;-76
2022/05/12 13:21:37;;;;;;;0.55;0.30;;;;;;;;;;6127705;23;20409;-78
2022/05/12 13:24:11;;;;;;;0.30;0.30;;;;;;;;;;6127506;23;20002;-74
2022/05/12 13:26:37;;;;;;;0.43;0.43;;;;;;;;;;6150251;23;20001;-76
2022/05/12 13:29:07;;;;;;;0.43;0.43;;;;;;;;;;6150563;23;20081;-76
2022/05/12 13:31:41;;;;;;;1.75;0.55;;;;;;;;;;6150355;23;20428;-75
2022/05/12 13:34:12;;;;;;;1.10;0.93;;;;;;;;;;6125665;23;20275;-78
2022/05/12 13:36:48;;;;;;;0.60;0.60;;;;;;;;;;6127361;23;20325;-76
2022/05/12 13:39:47;;;;;;;0.80;0.63;;;;;;;;;;6126271;23;20463;-77
2022/05/12 13:42:23;;;;;;;0.40;0.40;;;;;;;;;;6127619;23;20006;-76
2022/05/12 13:44:57;;;;;;;0.47;0.47;;;;;;;;;;6127467;23;20002;-76
2022/05/12 13:47:31;;;;;;;1.80;1.50;;;;;;;;;;6126588;23;20010;-72
2022/05/12 13:49:59;;;;;;;1.05;0.85;;;;;;;;;;6126667;23;20009;-73
2022/05/12 13:52:40;;;;;;;0.40;0.40;;;;;;;;;;6126380;23;20002;-75
2022/05/12 13:55:15;;;;;;;2.63;0.80;;;;;;;;;;6127322;23;20002;-74
2022/05/12 13:57:43;;;;;;;0.88;0.55;;;;;;;;;;6126318;23;20089;-75
2022/05/12 14:00:11;;;;;;;0.82;0.63;;;;;;;;;;6127210;23;20447;-75
2022/05/12 14:02:43;;;;;;;0.52;0.52;;;;;;;;;;6127368;23;20001;-77
2022/05/12 14:05:15;;;;;;;2.30;0.63;;;;;;;;;;6125954;23;20013;-76
2022/05/12 14:07:41;;;;;;;0.43;0.43;;;;;;;;;;6127235;23;20001;-73
2022/05/12 14:10:15;;;;;;;0.43;0.43;;;;;;;;;;6126355;23;20010;-78
2022/05/12 14:19:13;;;;;;;0.40;0.40;;;;;;;;;;6128268;23;20497;-79
2022/05/12 14:20:56;;;;;;;0.30;0.30;;;;;;;;;;6127106;23;20060;-77
2022/05/12 14:23:24;;;;;;;0.40;0.40;;;;;;;;;;6102144;23;20002;-76
2022/05/12 14:25:49;;;;;;;0.20;0.20;;;;;;;;;;6127268;23;20002;-76
2022/05/12 14:28:15;;;;;;;0.57;0.35;;;;;;;;;;6126874;23;20350;-76
2022/05/12 14:30:40;;;;;;;0.40;0.40;;;;;;;;;;6126045;23;20313;-77
2022/05/12 14:33:08;;;;;;;0.80;0.80;;;;;;;;;;6126158;23;20001;-76
2022/05/12 14:35:34;;;;;;;0.30;0.30;;;;;;;;;;6127251;23;20045;-76
2022/05/12 14:38:01;;;;;;;1.00;0.60;;;;;;;;;;6125993;23;20450;-76
2022/05/12 14:40:28;;;;;;;0.30;0.30;;;;;;;;;;6127249;23;20006;-75
2022/05/12 14:42:58;;;;;;;0.50;0.50;;;;;;;;;;6127000;23;20002;-76
2022/05/12 14:45:24;;;;;;;2.38;1.40;;;;;;;;;;6126911;23;20088;-74
2022/05/12 14:47:59;;;;;;;1.75;0.70;;;;;;;;;;6127027;23;20386;-75
2022/05/12 14:50:25;;;;;;;0.43;0.22;;;;;;;;;;6127082;23;20001;-74
2022/05/12 14:52:50;;;;;;;2.15;1.15;;;;;;;;;;6126938;23;20309;-75
2022/05/12 14:55:16;;;;;;;0.40;0.40;;;;;;;;;;6127062;23;20306;-75
2022/05/12 14:57:41;;;;;;;1.27;1.10;;;;;;;;;;6127163;23;20002;-74
2022/05/12 15:00:08;;;;;;;0.57;0.57;;;;;;;;;;6127192;23;20002;-75
2022/05/12 15:02:39;;;;;;;0.65;0.60;;;;;;;;;;6127477;23;20017;-75
2022/05/12 15:05:08;;;;;;;0.20;0.20;;;;;;;;;;6150275;23;20309;-74
2022/05/12 15:07:34;;;;;;;0.40;0.40;;;;;;;;;;6127005;23;20005;-74
2022/05/12 15:09:59;;;;;;;0.80;0.73;;;;;;;;;;6101805;23;20006;-74
2022/05/12 15:12:24;;;;;;;0.40;0.40;;;;;;;;;;6128701;23;20080;-75
2022/05/12 15:14:51;;;;;;;0.50;0.50;;;;;;;;;;6128983;23;20006;-76
2022/05/12 15:17:24;;;;;;;1.25;0.80;;;;;;;;;;6129228;23;20030;-75
2022/05/12 15:19:49;;;;;;;1.30;0.88;;;;;;;;;;6128010;23;20013;-75
2022/05/12 15:22:14;;;;;;;5.53;1.40;;;;;;;;;;6129054;23;20006;-76
2022/05/12 15:24:40;;;;;;;0.50;0.35;;;;;;;;;;6127796;23;20080;-75
2022/05/12 15:27:07;;;;;;;0.75;0.75;;;;;;;;;;6127911;23;20052;-74
2022/05/12 15:29:33;;;;;;;0.28;0.28;;;;;;;;;;6103469;23;20048;-74
2022/05/12 15:31:58;;;;;;;0.68;0.68;;;;;;;;;;6128945;23;20251;-73
2022/05/12 15:34:26;;;;;;;0.50;0.50;;;;;;;;;;6127649;23;20366;-72